Aviation Digital Data Service (ADDS)

Output produced by TAFs form (1223 UTC 23 March 2017)
found at http://aviationweather.gov/adds/tafs/
 
KRIL 231146Z 2312/2412 20014G24KT P6SM VCSH BKN070 OVC100 
     FM231800 27012G20KT P6SM -SHRA VCTS OVC070CB 
     TEMPO 2320/2324 VRB12G25KT 5SM -TSRA OVC050CB 
     FM240000 30010G22KT 4SM -SHRA OVC040 
     FM240900 30010G20KT P6SM OVC035